Island Park, Indiana
Current Conditions -  °F | °C
As of 11:15 AM on Friday 24 Oct 2014 (Local Time) from KANQ Reporting Station
Overcast Overcast  
Wind Chill: 50°   Ceiling: 2900
Heat Index: 50°   Visibility: 10mi
Dew Point: 46°   Wind: 3mph
Humidity: 87%   Direction: 180°S
Pressure: 30.07"   Gusts: NA
Location:  41.5557°N, 84.8806°W
Report Text: KANQ 241515Z AUTO 18003KT 10SM OVC029 10/08 A3007 RMK
Loading
Personal Weather Stations






























Interactive Weather Map
Tropical Storm Tracking
New forecast layout! Learn more

10-Day Weather Forecast

Advertisements
Track Severe Weather on mobile